sensor_id;sensor_type;location;lat;lon;timestamp;P1;durP1;ratioP1;P2;durP2;ratioP2
31336;SDS011;22846;42.654;23.314;2023-08-06T00:00:49;10.73;;;4.50;;
31336;SDS011;22846;42.654;23.314;2023-08-06T00:03:15;20.15;;;8.10;;
31336;SDS011;22846;42.654;23.314;2023-08-06T00:05:43;14.88;;;5.40;;
31336;SDS011;22846;42.654;23.314;2023-08-06T00:08:09;10.27;;;4.13;;
31336;SDS011;22846;42.654;23.314;2023-08-06T00:10:34;5.70;;;3.38;;
31336;SDS011;22846;42.654;23.314;2023-08-06T00:12:59;7.47;;;3.20;;
31336;SDS011;22846;42.654;23.314;2023-08-06T00:15:25;5.20;;;3.25;;
31336;SDS011;22846;42.654;23.314;2023-08-06T00:17:50;5.13;;;3.13;;
31336;SDS011;22846;42.654;23.314;2023-08-06T00:20:16;5.85;;;3.28;;
31336;SDS011;22846;42.654;23.314;2023-08-06T00:22:41;4.43;;;2.80;;
31336;SDS011;22846;42.654;23.314;2023-08-06T00:25:06;7.55;;;3.28;;
31336;SDS011;22846;42.654;23.314;2023-08-06T00:27:32;5.15;;;2.53;;
31336;SDS011;22846;42.654;23.314;2023-08-06T00:29:58;12.35;;;3.05;;
31336;SDS011;22846;42.654;23.314;2023-08-06T00:32:24;6.22;;;2.58;;
31336;SDS011;22846;42.654;23.314;2023-08-06T00:34:49;7.30;;;2.50;;
31336;SDS011;22846;42.654;23.314;2023-08-06T00:37:17;4.47;;;2.70;;
31336;SDS011;22846;42.654;23.314;2023-08-06T00:39:43;5.47;;;3.03;;
31336;SDS011;22846;42.654;23.314;2023-08-06T00:42:09;5.55;;;3.45;;
31336;SDS011;22846;42.654;23.314;2023-08-06T00:44:35;8.13;;;3.50;;
31336;SDS011;22846;42.654;23.314;2023-08-06T00:47:01;5.97;;;3.38;;
31336;SDS011;22846;42.654;23.314;2023-08-06T00:49:27;5.75;;;3.95;;
31336;SDS011;22846;42.654;23.314;2023-08-06T00:51:53;7.22;;;4.50;;
31336;SDS011;22846;42.654;23.314;2023-08-06T00:54:18;6.05;;;4.47;;
31336;SDS011;22846;42.654;23.314;2023-08-06T00:56:44;5.78;;;4.35;;
31336;SDS011;22846;42.654;23.314;2023-08-06T00:59:11;6.75;;;4.07;;
31336;SDS011;22846;42.654;23.314;2023-08-06T01:01:37;4.55;;;4.00;;
31336;SDS011;22846;42.654;23.314;2023-08-06T01:04:02;5.25;;;3.20;;
31336;SDS011;22846;42.654;23.314;2023-08-06T01:06:35;5.82;;;3.80;;
31336;SDS011;22846;42.654;23.314;2023-08-06T01:11:59;8.27;;;4.32;;
31336;SDS011;22846;42.654;23.314;2023-08-06T01:17:45;6.35;;;4.10;;
31336;SDS011;22846;42.654;23.314;2023-08-06T01:20:11;5.95;;;4.35;;
31336;SDS011;22846;42.654;23.314;2023-08-06T01:22:37;6.43;;;4.85;;
31336;SDS011;22846;42.654;23.314;2023-08-06T01:25:02;6.53;;;4.35;;
31336;SDS011;22846;42.654;23.314;2023-08-06T01:27:38;5.70;;;3.42;;
31336;SDS011;22846;42.654;23.314;2023-08-06T01:30:08;3.90;;;3.50;;
31336;SDS011;22846;42.654;23.314;2023-08-06T01:32:39;5.03;;;3.83;;
31336;SDS011;22846;42.654;23.314;2023-08-06T01:35:08;5.85;;;3.80;;
31336;SDS011;22846;42.654;23.314;2023-08-06T01:37:36;7.68;;;4.30;;
31336;SDS011;22846;42.654;23.314;2023-08-06T01:40:06;6.15;;;4.05;;
31336;SDS011;22846;42.654;23.314;2023-08-06T01:42:40;7.55;;;5.18;;
31336;SDS011;22846;42.654;23.314;2023-08-06T01:45:06;7.63;;;4.47;;
31336;SDS011;22846;42.654;23.314;2023-08-06T01:47:33;7.03;;;4.53;;
31336;SDS011;22846;42.654;23.314;2023-08-06T01:49:58;6.35;;;4.38;;
31336;SDS011;22846;42.654;23.314;2023-08-06T01:52:24;6.80;;;4.43;;
31336;SDS011;22846;42.654;23.314;2023-08-06T01:54:49;4.93;;;3.67;;
31336;SDS011;22846;42.654;23.314;2023-08-06T01:57:14;7.88;;;3.67;;
31336;SDS011;22846;42.654;23.314;2023-08-06T01:59:40;5.97;;;3.50;;
31336;SDS011;22846;42.654;23.314;2023-08-06T02:02:05;6.93;;;3.63;;
31336;SDS011;22846;42.654;23.314;2023-08-06T02:04:30;5.32;;;3.08;;
31336;SDS011;22846;42.654;23.314;2023-08-06T02:06:56;6.07;;;3.00;;
31336;SDS011;22846;42.654;23.314;2023-08-06T02:09:21;4.35;;;2.90;;
31336;SDS011;22846;42.654;23.314;2023-08-06T02:11:47;3.67;;;3.00;;
31336;SDS011;22846;42.654;23.314;2023-08-06T02:14:12;4.88;;;2.90;;
31336;SDS011;22846;42.654;23.314;2023-08-06T02:16:37;3.97;;;2.80;;
31336;SDS011;22846;42.654;23.314;2023-08-06T02:19:03;6.30;;;2.67;;
31336;SDS011;22846;42.654;23.314;2023-08-06T02:21:28;3.28;;;2.50;;
31336;SDS011;22846;42.654;23.314;2023-08-06T02:23:53;3.25;;;2.50;;
31336;SDS011;22846;42.654;23.314;2023-08-06T02:26:19;3.95;;;3.00;;
31336;SDS011;22846;42.654;23.314;2023-08-06T02:28:45;4.43;;;2.65;;
31336;SDS011;22846;42.654;23.314;2023-08-06T02:31:10;11.98;;;3.95;;
31336;SDS011;22846;42.654;23.314;2023-08-06T02:33:35;14.20;;;4.10;;
31336;SDS011;22846;42.654;23.314;2023-08-06T02:36:01;6.88;;;3.60;;
31336;SDS011;22846;42.654;23.314;2023-08-06T02:38:31;9.88;;;4.15;;
31336;SDS011;22846;42.654;23.314;2023-08-06T02:40:57;6.43;;;3.40;;
31336;SDS011;22846;42.654;23.314;2023-08-06T02:43:22;7.95;;;3.88;;
31336;SDS011;22846;42.654;23.314;2023-08-06T02:45:47;4.60;;;3.38;;
31336;SDS011;22846;42.654;23.314;2023-08-06T02:48:13;6.28;;;3.05;;
31336;SDS011;22846;42.654;23.314;2023-08-06T02:50:39;4.15;;;2.80;;
31336;SDS011;22846;42.654;23.314;2023-08-06T02:53:05;5.72;;;3.00;;
31336;SDS011;22846;42.654;23.314;2023-08-06T02:55:31;4.55;;;2.80;;
31336;SDS011;22846;42.654;23.314;2023-08-06T02:57:58;4.72;;;2.70;;
31336;SDS011;22846;42.654;23.314;2023-08-06T03:00:24;3.72;;;2.70;;
31336;SDS011;22846;42.654;23.314;2023-08-06T03:02:49;5.20;;;3.03;;
31336;SDS011;22846;42.654;23.314;2023-08-06T03:05:14;5.95;;;3.05;;
31336;SDS011;22846;42.654;23.314;2023-08-06T03:07:40;4.20;;;2.90;;
31336;SDS011;22846;42.654;23.314;2023-08-06T03:10:05;4.20;;;2.50;;
31336;SDS011;22846;42.654;23.314;2023-08-06T03:12:31;3.53;;;2.60;;
31336;SDS011;22846;42.654;23.314;2023-08-06T03:14:56;4.53;;;2.85;;
31336;SDS011;22846;42.654;23.314;2023-08-06T03:17:22;7.43;;;3.15;;
31336;SDS011;22846;42.654;23.314;2023-08-06T03:19:47;4.72;;;2.90;;
31336;SDS011;22846;42.654;23.314;2023-08-06T03:22:12;5.40;;;3.00;;
31336;SDS011;22846;42.654;23.314;2023-08-06T03:24:38;4.03;;;2.40;;
31336;SDS011;22846;42.654;23.314;2023-08-06T03:27:03;3.65;;;2.42;;
31336;SDS011;22846;42.654;23.314;2023-08-06T03:29:29;5.15;;;2.40;;
31336;SDS011;22846;42.654;23.314;2023-08-06T03:31:54;4.13;;;2.40;;
31336;SDS011;22846;42.654;23.314;2023-08-06T03:34:19;2.90;;;2.15;;
31336;SDS011;22846;42.654;23.314;2023-08-06T03:36:45;3.30;;;2.17;;
31336;SDS011;22846;42.654;23.314;2023-08-06T03:39:10;3.05;;;2.30;;
31336;SDS011;22846;42.654;23.314;2023-08-06T03:41:36;3.85;;;2.38;;
31336;SDS011;22846;42.654;23.314;2023-08-06T03:44:01;3.78;;;2.58;;
31336;SDS011;22846;42.654;23.314;2023-08-06T03:46:28;4.45;;;2.30;;
31336;SDS011;22846;42.654;23.314;2023-08-06T03:48:54;4.28;;;2.40;;
31336;SDS011;22846;42.654;23.314;2023-08-06T03:51:19;5.13;;;2.30;;
31336;SDS011;22846;42.654;23.314;2023-08-06T03:53:45;4.55;;;2.70;;
31336;SDS011;22846;42.654;23.314;2023-08-06T03:56:10;4.15;;;2.65;;
31336;SDS011;22846;42.654;23.314;2023-08-06T03:58:35;4.68;;;2.92;;
31336;SDS011;22846;42.654;23.314;2023-08-06T04:01:01;3.92;;;2.40;;
31336;SDS011;22846;42.654;23.314;2023-08-06T04:03:28;5.30;;;2.83;;
31336;SDS011;22846;42.654;23.314;2023-08-06T04:05:54;6.75;;;2.60;;
31336;SDS011;22846;42.654;23.314;2023-08-06T04:08:19;2.92;;;2.60;;
31336;SDS011;22846;42.654;23.314;2023-08-06T04:10:45;7.70;;;2.80;;
31336;SDS011;22846;42.654;23.314;2023-08-06T04:13:10;4.28;;;3.00;;
31336;SDS011;22846;42.654;23.314;2023-08-06T04:15:35;3.97;;;2.67;;
31336;SDS011;22846;42.654;23.314;2023-08-06T04:18:01;5.35;;;2.45;;
31336;SDS011;22846;42.654;23.314;2023-08-06T04:20:26;4.95;;;2.78;;
31336;SDS011;22846;42.654;23.314;2023-08-06T04:22:54;2.92;;;2.50;;
31336;SDS011;22846;42.654;23.314;2023-08-06T04:25:19;7.07;;;2.97;;
31336;SDS011;22846;42.654;23.314;2023-08-06T04:27:48;4.35;;;2.67;;
31336;SDS011;22846;42.654;23.314;2023-08-06T04:30:14;5.35;;;2.67;;
31336;SDS011;22846;42.654;23.314;2023-08-06T04:32:39;4.05;;;2.65;;
31336;SDS011;22846;42.654;23.314;2023-08-06T04:35:05;2.83;;;2.10;;
31336;SDS011;22846;42.654;23.314;2023-08-06T04:37:31;3.60;;;2.45;;
31336;SDS011;22846;42.654;23.314;2023-08-06T04:39:56;6.20;;;2.63;;
31336;SDS011;22846;42.654;23.314;2023-08-06T04:42:22;4.32;;;2.40;;
31336;SDS011;22846;42.654;23.314;2023-08-06T04:44:47;4.00;;;2.60;;
31336;SDS011;22846;42.654;23.314;2023-08-06T04:47:12;4.15;;;2.70;;
31336;SDS011;22846;42.654;23.314;2023-08-06T04:49:38;5.55;;;2.70;;
31336;SDS011;22846;42.654;23.314;2023-08-06T04:52:03;3.08;;;2.70;;
31336;SDS011;22846;42.654;23.314;2023-08-06T04:54:29;3.97;;;2.72;;
31336;SDS011;22846;42.654;23.314;2023-08-06T04:56:54;4.57;;;3.10;;
31336;SDS011;22846;42.654;23.314;2023-08-06T04:59:20;8.02;;;3.05;;
31336;SDS011;22846;42.654;23.314;2023-08-06T05:01:45;4.63;;;3.15;;
31336;SDS011;22846;42.654;23.314;2023-08-06T05:04:10;4.57;;;2.80;;
31336;SDS011;22846;42.654;23.314;2023-08-06T05:06:36;3.95;;;3.05;;
31336;SDS011;22846;42.654;23.314;2023-08-06T05:09:03;6.07;;;3.80;;
31336;SDS011;22846;42.654;23.314;2023-08-06T05:11:29;5.47;;;3.97;;
31336;SDS011;22846;42.654;23.314;2023-08-06T05:13:55;6.38;;;3.90;;
31336;SDS011;22846;42.654;23.314;2023-08-06T05:16:20;5.05;;;3.53;;
31336;SDS011;22846;42.654;23.314;2023-08-06T05:18:46;4.88;;;3.35;;
31336;SDS011;22846;42.654;23.314;2023-08-06T05:21:11;3.53;;;3.05;;
31336;SDS011;22846;42.654;23.314;2023-08-06T05:23:36;4.47;;;3.10;;
31336;SDS011;22846;42.654;23.314;2023-08-06T05:26:02;7.22;;;3.65;;
31336;SDS011;22846;42.654;23.314;2023-08-06T05:28:27;5.72;;;4.00;;
31336;SDS011;22846;42.654;23.314;2023-08-06T05:30:53;6.85;;;4.55;;
31336;SDS011;22846;42.654;23.314;2023-08-06T05:33:18;5.32;;;3.85;;
31336;SDS011;22846;42.654;23.314;2023-08-06T05:35:44;6.90;;;5.22;;
31336;SDS011;22846;42.654;23.314;2023-08-06T05:38:10;7.05;;;4.80;;
31336;SDS011;22846;42.654;23.314;2023-08-06T05:40:35;9.45;;;5.55;;
31336;SDS011;22846;42.654;23.314;2023-08-06T05:43:01;6.82;;;5.45;;
31336;SDS011;22846;42.654;23.314;2023-08-06T05:45:26;7.28;;;5.55;;
31336;SDS011;22846;42.654;23.314;2023-08-06T05:47:52;5.72;;;4.90;;
31336;SDS011;22846;42.654;23.314;2023-08-06T05:50:19;6.68;;;4.80;;
31336;SDS011;22846;42.654;23.314;2023-08-06T05:52:44;5.97;;;4.55;;
31336;SDS011;22846;42.654;23.314;2023-08-06T05:55:10;7.03;;;4.93;;
31336;SDS011;22846;42.654;23.314;2023-08-06T05:57:35;5.95;;;4.95;;
31336;SDS011;22846;42.654;23.314;2023-08-06T06:00:01;7.28;;;5.55;;
31336;SDS011;22846;42.654;23.314;2023-08-06T06:02:27;6.07;;;5.13;;
31336;SDS011;22846;42.654;23.314;2023-08-06T06:04:52;6.95;;;5.53;;
31336;SDS011;22846;42.654;23.314;2023-08-06T06:07:17;6.32;;;4.93;;
31336;SDS011;22846;42.654;23.314;2023-08-06T06:09:43;8.60;;;6.80;;
31336;SDS011;22846;42.654;23.314;2023-08-06T06:12:08;8.32;;;6.18;;
31336;SDS011;22846;42.654;23.314;2023-08-06T06:14:34;7.63;;;6.57;;
31336;SDS011;22846;42.654;23.314;2023-08-06T06:16:59;7.07;;;5.95;;
31336;SDS011;22846;42.654;23.314;2023-08-06T06:19:27;7.05;;;6.38;;
31336;SDS011;22846;42.654;23.314;2023-08-06T06:21:53;7.88;;;6.20;;
31336;SDS011;22846;42.654;23.314;2023-08-06T06:24:18;7.82;;;6.22;;
31336;SDS011;22846;42.654;23.314;2023-08-06T06:26:44;7.30;;;5.10;;
31336;SDS011;22846;42.654;23.314;2023-08-06T06:29:09;5.53;;;5.00;;
31336;SDS011;22846;42.654;23.314;2023-08-06T06:31:34;6.30;;;4.78;;
31336;SDS011;22846;42.654;23.314;2023-08-06T06:34:00;5.65;;;5.03;;
31336;SDS011;22846;42.654;23.314;2023-08-06T06:36:26;5.45;;;4.85;;
31336;SDS011;22846;42.654;23.314;2023-08-06T06:38:51;5.95;;;4.55;;
31336;SDS011;22846;42.654;23.314;2023-08-06T06:41:17;5.38;;;4.80;;
31336;SDS011;22846;42.654;23.314;2023-08-06T06:43:42;5.60;;;4.55;;
31336;SDS011;22846;42.654;23.314;2023-08-06T06:46:07;7.25;;;4.78;;
31336;SDS011;22846;42.654;23.314;2023-08-06T06:48:33;6.70;;;4.20;;
31336;SDS011;22846;42.654;23.314;2023-08-06T06:50:58;5.93;;;4.03;;
31336;SDS011;22846;42.654;23.314;2023-08-06T06:53:24;7.05;;;3.88;;
31336;SDS011;22846;42.654;23.314;2023-08-06T06:55:56;4.38;;;3.45;;
31336;SDS011;22846;42.654;23.314;2023-08-06T06:58:26;8.43;;;4.45;;
31336;SDS011;22846;42.654;23.314;2023-08-06T07:00:52;5.95;;;4.40;;
31336;SDS011;22846;42.654;23.314;2023-08-06T07:03:17;8.93;;;4.22;;
31336;SDS011;22846;42.654;23.314;2023-08-06T07:05:44;4.55;;;3.70;;
31336;SDS011;22846;42.654;23.314;2023-08-06T07:08:10;5.72;;;4.90;;
31336;SDS011;22846;42.654;23.314;2023-08-06T07:10:35;5.30;;;4.60;;
31336;SDS011;22846;42.654;23.314;2023-08-06T07:13:00;6.47;;;4.70;;
31336;SDS011;22846;42.654;23.314;2023-08-06T07:15:26;5.38;;;4.88;;
31336;SDS011;22846;42.654;23.314;2023-08-06T07:17:51;5.38;;;4.80;;
31336;SDS011;22846;42.654;23.314;2023-08-06T07:20:17;5.45;;;4.55;;
31336;SDS011;22846;42.654;23.314;2023-08-06T07:22:43;4.55;;;3.90;;
31336;SDS011;22846;42.654;23.314;2023-08-06T07:25:09;5.22;;;4.50;;
31336;SDS011;22846;42.654;23.314;2023-08-06T07:27:34;4.93;;;4.43;;
31336;SDS011;22846;42.654;23.314;2023-08-06T07:29:59;5.13;;;4.43;;
31336;SDS011;22846;42.654;23.314;2023-08-06T07:32:25;5.35;;;4.38;;
31336;SDS011;22846;42.654;23.314;2023-08-06T07:34:51;4.90;;;4.18;;
31336;SDS011;22846;42.654;23.314;2023-08-06T07:37:21;5.28;;;4.45;;
31336;SDS011;22846;42.654;23.314;2023-08-06T07:39:47;5.00;;;4.05;;
31336;SDS011;22846;42.654;23.314;2023-08-06T07:42:13;5.68;;;4.45;;
31336;SDS011;22846;42.654;23.314;2023-08-06T07:44:38;4.20;;;3.80;;
31336;SDS011;22846;42.654;23.314;2023-08-06T07:47:04;4.40;;;4.00;;
31336;SDS011;22846;42.654;23.314;2023-08-06T07:49:29;8.10;;;4.43;;
31336;SDS011;22846;42.654;23.314;2023-08-06T07:51:55;4.30;;;3.83;;
31336;SDS011;22846;42.654;23.314;2023-08-06T07:54:20;4.85;;;3.65;;
31336;SDS011;22846;42.654;23.314;2023-08-06T07:56:45;4.53;;;3.38;;
31336;SDS011;22846;42.654;23.314;2023-08-06T07:59:11;4.95;;;3.33;;
31336;SDS011;22846;42.654;23.314;2023-08-06T08:01:36;4.30;;;3.90;;
31336;SDS011;22846;42.654;23.314;2023-08-06T08:04:02;4.03;;;3.15;;
31336;SDS011;22846;42.654;23.314;2023-08-06T08:06:27;4.65;;;3.40;;
31336;SDS011;22846;42.654;23.314;2023-08-06T08:08:52;4.15;;;3.50;;
31336;SDS011;22846;42.654;23.314;2023-08-06T08:11:18;6.70;;;4.13;;
31336;SDS011;22846;42.654;23.314;2023-08-06T08:13:43;3.78;;;3.47;;
31336;SDS011;22846;42.654;23.314;2023-08-06T08:16:09;3.90;;;3.60;;
31336;SDS011;22846;42.654;23.314;2023-08-06T08:18:35;4.25;;;3.70;;
31336;SDS011;22846;42.654;23.314;2023-08-06T08:21:00;4.05;;;3.65;;
31336;SDS011;22846;42.654;23.314;2023-08-06T08:23:25;4.20;;;3.80;;
31336;SDS011;22846;42.654;23.314;2023-08-06T08:25:51;4.20;;;3.45;;
31336;SDS011;22846;42.654;23.314;2023-08-06T08:28:16;4.28;;;3.65;;
31336;SDS011;22846;42.654;23.314;2023-08-06T08:30:43;6.10;;;3.60;;
31336;SDS011;22846;42.654;23.314;2023-08-06T08:33:08;4.35;;;3.28;;
31336;SDS011;22846;42.654;23.314;2023-08-06T08:35:34;5.78;;;3.70;;
31336;SDS011;22846;42.654;23.314;2023-08-06T08:38:02;5.45;;;3.53;;
31336;SDS011;22846;42.654;23.314;2023-08-06T08:40:29;6.28;;;3.35;;
31336;SDS011;22846;42.654;23.314;2023-08-06T08:42:57;9.27;;;3.67;;
31336;SDS011;22846;42.654;23.314;2023-08-06T08:45:24;4.47;;;3.42;;
31336;SDS011;22846;42.654;23.314;2023-08-06T08:47:52;7.13;;;3.50;;
31336;SDS011;22846;42.654;23.314;2023-08-06T08:50:18;16.15;;;4.00;;
31336;SDS011;22846;42.654;23.314;2023-08-06T08:52:44;8.63;;;4.00;;
31336;SDS011;22846;42.654;23.314;2023-08-06T08:55:11;8.40;;;3.55;;
31336;SDS011;22846;42.654;23.314;2023-08-06T08:57:39;8.32;;;3.10;;
31336;SDS011;22846;42.654;23.314;2023-08-06T09:00:04;5.25;;;3.53;;
31336;SDS011;22846;42.654;23.314;2023-08-06T09:02:30;5.65;;;3.67;;
31336;SDS011;22846;42.654;23.314;2023-08-06T09:04:58;5.32;;;3.80;;
31336;SDS011;22846;42.654;23.314;2023-08-06T09:07:27;4.13;;;3.72;;
31336;SDS011;22846;42.654;23.314;2023-08-06T09:09:57;6.25;;;3.85;;
31336;SDS011;22846;42.654;23.314;2023-08-06T09:12:24;6.35;;;4.38;;
31336;SDS011;22846;42.654;23.314;2023-08-06T09:14:50;6.43;;;3.72;;
31336;SDS011;22846;42.654;23.314;2023-08-06T09:17:16;3.92;;;3.42;;
31336;SDS011;22846;42.654;23.314;2023-08-06T09:19:44;5.90;;;3.72;;
31336;SDS011;22846;42.654;23.314;2023-08-06T09:22:12;6.25;;;3.70;;
31336;SDS011;22846;42.654;23.314;2023-08-06T09:24:39;6.10;;;3.53;;
31336;SDS011;22846;42.654;23.314;2023-08-06T09:27:14;6.32;;;3.40;;
31336;SDS011;22846;42.654;23.314;2023-08-06T09:29:44;7.97;;;3.55;;
31336;SDS011;22846;42.654;23.314;2023-08-06T09:32:10;3.83;;;3.15;;
31336;SDS011;22846;42.654;23.314;2023-08-06T09:34:38;4.53;;;3.45;;
31336;SDS011;22846;42.654;23.314;2023-08-06T09:37:05;5.93;;;3.20;;
31336;SDS011;22846;42.654;23.314;2023-08-06T09:39:31;6.40;;;3.38;;
31336;SDS011;22846;42.654;23.314;2023-08-06T09:42:00;8.85;;;3.20;;
31336;SDS011;22846;42.654;23.314;2023-08-06T09:44:27;9.05;;;3.80;;
31336;SDS011;22846;42.654;23.314;2023-08-06T09:46:54;7.43;;;3.60;;
31336;SDS011;22846;42.654;23.314;2023-08-06T09:49:42;6.45;;;3.38;;
31336;SDS011;22846;42.654;23.314;2023-08-06T09:52:13;7.93;;;4.43;;
31336;SDS011;22846;42.654;23.314;2023-08-06T09:54:41;11.10;;;5.32;;
31336;SDS011;22846;42.654;23.314;2023-08-06T09:57:08;8.82;;;4.60;;
31336;SDS011;22846;42.654;23.314;2023-08-06T09:59:34;6.10;;;3.88;;
31336;SDS011;22846;42.654;23.314;2023-08-06T10:02:02;20.95;;;10.45;;
31336;SDS011;22846;42.654;23.314;2023-08-06T10:04:32;15.38;;;6.90;;
31336;SDS011;22846;42.654;23.314;2023-08-06T10:06:58;16.52;;;7.05;;
31336;SDS011;22846;42.654;23.314;2023-08-06T10:09:24;13.02;;;6.45;;
31336;SDS011;22846;42.654;23.314;2023-08-06T10:11:50;12.25;;;6.50;;
31336;SDS011;22846;42.654;23.314;2023-08-06T10:14:20;10.55;;;6.15;;
31336;SDS011;22846;42.654;23.314;2023-08-06T10:16:50;10.75;;;6.20;;
31336;SDS011;22846;42.654;23.314;2023-08-06T10:19:16;10.00;;;6.00;;
31336;SDS011;22846;42.654;23.314;2023-08-06T10:22:08;7.70;;;5.55;;
31336;SDS011;22846;42.654;23.314;2023-08-06T10:24:54;9.52;;;6.32;;
31336;SDS011;22846;42.654;23.314;2023-08-06T10:30:22;9.50;;;6.13;;
31336;SDS011;22846;42.654;23.314;2023-08-06T10:32:49;10.75;;;5.97;;
31336;SDS011;22846;42.654;23.314;2023-08-06T10:38:10;13.02;;;5.65;;
31336;SDS011;22846;42.654;23.314;2023-08-06T10:40:37;10.15;;;6.35;;
31336;SDS011;22846;42.654;23.314;2023-08-06T10:43:05;6.95;;;5.50;;
31336;SDS011;22846;42.654;23.314;2023-08-06T10:45:35;7.65;;;5.55;;
31336;SDS011;22846;42.654;23.314;2023-08-06T10:48:03;7.55;;;6.00;;
31336;SDS011;22846;42.654;23.314;2023-08-06T10:50:29;8.25;;;5.93;;
31336;SDS011;22846;42.654;23.314;2023-08-06T10:52:56;10.02;;;5.30;;
31336;SDS011;22846;42.654;23.314;2023-08-06T10:55:26;6.45;;;5.05;;
31336;SDS011;22846;42.654;23.314;2023-08-06T10:57:53;7.65;;;5.18;;
31336;SDS011;22846;42.654;23.314;2023-08-06T11:00:20;8.98;;;5.47;;
31336;SDS011;22846;42.654;23.314;2023-08-06T11:02:47;7.47;;;5.65;;
31336;SDS011;22846;42.654;23.314;2023-08-06T11:05:13;10.60;;;5.60;;
31336;SDS011;22846;42.654;23.314;2023-08-06T11:07:38;9.50;;;5.07;;
31336;SDS011;22846;42.654;23.314;2023-08-06T11:10:04;6.35;;;5.00;;
31336;SDS011;22846;42.654;23.314;2023-08-06T11:12:31;8.85;;;5.25;;
31336;SDS011;22846;42.654;23.314;2023-08-06T11:14:57;8.45;;;5.30;;
31336;SDS011;22846;42.654;23.314;2023-08-06T11:17:23;8.65;;;5.15;;
31336;SDS011;22846;42.654;23.314;2023-08-06T11:19:49;6.00;;;4.35;;
31336;SDS011;22846;42.654;23.314;2023-08-06T11:22:15;7.90;;;4.82;;
31336;SDS011;22846;42.654;23.314;2023-08-06T11:24:41;8.00;;;4.50;;
31336;SDS011;22846;42.654;23.314;2023-08-06T11:27:13;6.78;;;5.13;;
31336;SDS011;22846;42.654;23.314;2023-08-06T11:29:39;5.95;;;4.68;;
31336;SDS011;22846;42.654;23.314;2023-08-06T11:32:06;5.25;;;4.35;;
31336;SDS011;22846;42.654;23.314;2023-08-06T11:34:32;6.50;;;4.15;;
31336;SDS011;22846;42.654;23.314;2023-08-06T11:36:57;6.45;;;4.30;;
31336;SDS011;22846;42.654;23.314;2023-08-06T11:39:23;7.88;;;4.50;;
31336;SDS011;22846;42.654;23.314;2023-08-06T11:41:49;5.90;;;4.60;;
31336;SDS011;22846;42.654;23.314;2023-08-06T11:44:14;5.68;;;4.20;;
31336;SDS011;22846;42.654;23.314;2023-08-06T11:46:49;5.28;;;3.97;;
31336;SDS011;22846;42.654;23.314;2023-08-06T11:49:17;6.68;;;4.75;;
31336;SDS011;22846;42.654;23.314;2023-08-06T11:51:46;5.22;;;4.15;;
31336;SDS011;22846;42.654;23.314;2023-08-06T11:54:12;5.68;;;4.57;;
31336;SDS011;22846;42.654;23.314;2023-08-06T11:56:37;6.13;;;4.70;;
31336;SDS011;22846;42.654;23.314;2023-08-06T11:59:03;5.20;;;4.07;;
31336;SDS011;22846;42.654;23.314;2023-08-06T12:01:28;5.18;;;4.20;;
31336;SDS011;22846;42.654;23.314;2023-08-06T12:03:58;9.45;;;4.68;;
31336;SDS011;22846;42.654;23.314;2023-08-06T12:06:26;6.45;;;4.78;;
31336;SDS011;22846;42.654;23.314;2023-08-06T12:08:52;4.88;;;4.38;;
31336;SDS011;22846;42.654;23.314;2023-08-06T12:11:20;6.00;;;4.43;;
31336;SDS011;22846;42.654;23.314;2023-08-06T12:13:50;5.43;;;4.38;;
31336;SDS011;22846;42.654;23.314;2023-08-06T12:16:16;7.10;;;3.95;;
31336;SDS011;22846;42.654;23.314;2023-08-06T12:18:43;6.45;;;4.18;;
31336;SDS011;22846;42.654;23.314;2023-08-06T12:21:09;6.25;;;4.10;;
31336;SDS011;22846;42.654;23.314;2023-08-06T12:23:34;5.57;;;4.13;;
31336;SDS011;22846;42.654;23.314;2023-08-06T12:26:01;4.88;;;3.80;;
31336;SDS011;22846;42.654;23.314;2023-08-06T12:28:26;5.32;;;4.32;;
31336;SDS011;22846;42.654;23.314;2023-08-06T12:30:52;4.32;;;3.88;;
31336;SDS011;22846;42.654;23.314;2023-08-06T12:33:20;4.25;;;3.70;;
31336;SDS011;22846;42.654;23.314;2023-08-06T12:35:45;4.38;;;3.92;;
31336;SDS011;22846;42.654;23.314;2023-08-06T12:38:11;6.25;;;4.10;;
31336;SDS011;22846;42.654;23.314;2023-08-06T12:40:36;4.72;;;3.90;;
31336;SDS011;22846;42.654;23.314;2023-08-06T12:43:01;5.25;;;3.80;;
31336;SDS011;22846;42.654;23.314;2023-08-06T12:45:27;5.18;;;4.20;;
31336;SDS011;22846;42.654;23.314;2023-08-06T12:47:52;5.13;;;3.85;;
31336;SDS011;22846;42.654;23.314;2023-08-06T12:50:18;4.22;;;3.83;;
31336;SDS011;22846;42.654;23.314;2023-08-06T12:52:44;4.63;;;3.63;;
31336;SDS011;22846;42.654;23.314;2023-08-06T12:55:09;5.60;;;4.10;;
31336;SDS011;22846;42.654;23.314;2023-08-06T12:57:34;4.28;;;3.88;;
31336;SDS011;22846;42.654;23.314;2023-08-06T13:00:00;4.20;;;3.60;;
31336;SDS011;22846;42.654;23.314;2023-08-06T13:02:26;5.50;;;4.47;;
31336;SDS011;22846;42.654;23.314;2023-08-06T13:04:55;4.45;;;3.95;;
31336;SDS011;22846;42.654;23.314;2023-08-06T13:07:20;4.82;;;4.00;;
31336;SDS011;22846;42.654;23.314;2023-08-06T13:09:46;4.22;;;3.47;;
31336;SDS011;22846;42.654;23.314;2023-08-06T13:12:11;6.03;;;4.18;;
31336;SDS011;22846;42.654;23.314;2023-08-06T13:14:36;4.00;;;3.60;;
31336;SDS011;22846;42.654;23.314;2023-08-06T13:17:02;6.05;;;4.38;;
31336;SDS011;22846;42.654;23.314;2023-08-06T13:19:27;4.15;;;3.75;;
31336;SDS011;22846;42.654;23.314;2023-08-06T13:22:00;4.47;;;3.65;;
31336;SDS011;22846;42.654;23.314;2023-08-06T13:24:28;7.40;;;3.63;;
31336;SDS011;22846;42.654;23.314;2023-08-06T13:26:54;4.50;;;3.85;;
31336;SDS011;22846;42.654;23.314;2023-08-06T13:29:19;4.82;;;3.60;;
31336;SDS011;22846;42.654;23.314;2023-08-06T13:31:45;4.40;;;3.80;;
31336;SDS011;22846;42.654;23.314;2023-08-06T13:34:10;4.47;;;4.07;;
31336;SDS011;22846;42.654;23.314;2023-08-06T13:36:36;5.10;;;3.50;;
31336;SDS011;22846;42.654;23.314;2023-08-06T13:39:01;3.70;;;3.33;;
31336;SDS011;22846;42.654;23.314;2023-08-06T13:41:28;4.63;;;3.50;;
31336;SDS011;22846;42.654;23.314;2023-08-06T13:43:53;4.35;;;3.40;;
31336;SDS011;22846;42.654;23.314;2023-08-06T13:46:19;3.80;;;3.50;;
31336;SDS011;22846;42.654;23.314;2023-08-06T13:48:45;4.85;;;3.22;;
31336;SDS011;22846;42.654;23.314;2023-08-06T13:51:12;3.85;;;3.30;;
31336;SDS011;22846;42.654;23.314;2023-08-06T13:53:38;4.43;;;3.58;;
31336;SDS011;22846;42.654;23.314;2023-08-06T13:56:05;3.88;;;3.45;;
31336;SDS011;22846;42.654;23.314;2023-08-06T13:58:31;4.05;;;3.55;;
31336;SDS011;22846;42.654;23.314;2023-08-06T14:00:56;3.40;;;3.10;;
31336;SDS011;22846;42.654;23.314;2023-08-06T14:03:22;5.03;;;3.70;;
31336;SDS011;22846;42.654;23.314;2023-08-06T14:05:48;3.85;;;3.42;;
31336;SDS011;22846;42.654;23.314;2023-08-06T14:08:14;4.03;;;3.30;;
31336;SDS011;22846;42.654;23.314;2023-08-06T14:10:40;4.53;;;3.45;;
31336;SDS011;22846;42.654;23.314;2023-08-06T14:13:05;5.22;;;3.20;;
31336;SDS011;22846;42.654;23.314;2023-08-06T14:15:30;3.78;;;3.13;;
31336;SDS011;22846;42.654;23.314;2023-08-06T14:17:58;3.55;;;3.25;;
31336;SDS011;22846;42.654;23.314;2023-08-06T14:20:23;3.40;;;3.10;;
31336;SDS011;22846;42.654;23.314;2023-08-06T14:22:48;4.07;;;3.58;;
31336;SDS011;22846;42.654;23.314;2023-08-06T14:25:14;4.30;;;3.40;;
31336;SDS011;22846;42.654;23.314;2023-08-06T14:27:39;3.83;;;3.22;;
31336;SDS011;22846;42.654;23.314;2023-08-06T14:30:05;4.18;;;3.30;;
31336;SDS011;22846;42.654;23.314;2023-08-06T14:32:31;3.90;;;3.30;;
31336;SDS011;22846;42.654;23.314;2023-08-06T14:34:57;4.72;;;3.42;;
31336;SDS011;22846;42.654;23.314;2023-08-06T14:37:24;4.43;;;3.40;;
31336;SDS011;22846;42.654;23.314;2023-08-06T14:39:50;4.13;;;3.35;;